createdAt,value
2023-06-11T00:00:55.397Z,99422.94
2023-06-11T00:01:52.755Z,99420.63
2023-06-11T00:02:55.395Z,99422.03
2023-06-11T00:03:53.850Z,99421.47
2023-06-11T00:04:51.090Z,99432.28
2023-06-11T00:05:48.716Z,99417.28
2023-06-11T00:06:46.585Z,99426.75
2023-06-11T00:07:43.517Z,99422.78
2023-06-11T00:08:40.552Z,99416.31
2023-06-11T00:09:37.583Z,99420.63
2023-06-11T00:10:34.541Z,99421.63
2023-06-11T00:11:31.470Z,99421.50
2023-06-11T00:12:28.732Z,99429.81
2023-06-11T00:13:25.990Z,99429.31
2023-06-11T00:14:24.955Z,99431.81
2023-06-11T00:15:22.058Z,99425.41
2023-06-11T00:16:19.034Z,99426.19
2023-06-11T00:17:16.056Z,99428.84
2023-06-11T00:18:13.441Z,99422.13
2023-06-11T00:19:10.653Z,99433.16
2023-06-11T00:20:11.240Z,99429.22
2023-06-11T00:21:09.223Z,99424.66
2023-06-11T00:22:06.465Z,99428.06
2023-06-11T00:23:03.491Z,99426.75
2023-06-11T00:24:00.709Z,99424.34
2023-06-11T00:24:57.678Z,99427.38
2023-06-11T00:25:54.604Z,99425.22
2023-06-11T00:26:51.658Z,99420.94
2023-06-11T00:27:48.619Z,99423.06
2023-06-11T00:28:45.601Z,99424.16
2023-06-11T00:29:42.563Z,99420.09
2023-06-11T00:30:39.478Z,99425.66
2023-06-11T00:31:36.549Z,99426.78
2023-06-11T00:32:35.084Z,99424.28
2023-06-11T00:33:32.079Z,99425.03
2023-06-11T00:34:29.066Z,99424.75
2023-06-11T00:35:26.029Z,99420.00
2023-06-11T00:36:22.931Z,99418.31
2023-06-11T00:37:19.840Z,99418.69
2023-06-11T00:38:20.584Z,99422.09
2023-06-11T00:39:17.967Z,99421.34
2023-06-11T00:40:14.882Z,99426.19
2023-06-11T00:41:11.780Z,99425.84
2023-06-11T00:42:11.529Z,99423.41
2023-06-11T00:43:08.846Z,99417.19
2023-06-11T00:44:06.734Z,99421.50
2023-06-11T00:45:07.577Z,99425.41
2023-06-11T00:46:12.024Z,99424.44
2023-06-11T00:47:10.168Z,99413.16
2023-06-11T00:48:07.427Z,99419.06
2023-06-11T00:49:04.437Z,99421.44
2023-06-11T00:50:03.629Z,99418.97
2023-06-11T00:51:00.897Z,99421.13
2023-06-11T00:51:58.905Z,99424.66
2023-06-11T00:52:56.175Z,99422.53
2023-06-11T00:53:54.774Z,99421.13
2023-06-11T00:54:54.392Z,99414.63
2023-06-11T00:55:51.299Z,99423.97
2023-06-11T00:56:48.198Z,99423.16
2023-06-11T00:57:45.096Z,99421.03
2023-06-11T00:58:42.055Z,99427.44
2023-06-11T00:59:40.006Z,99428.41
2023-06-11T01:00:37.491Z,99426.38
2023-06-11T01:01:43.070Z,99424.63
2023-06-11T01:02:46.423Z,99425.09
2023-06-11T01:03:44.498Z,99426.94
2023-06-11T01:04:43.264Z,99421.50
2023-06-11T01:05:45.686Z,99429.34
2023-06-11T01:06:47.553Z,99420.91
2023-06-11T01:07:51.962Z,99427.94
2023-06-11T01:08:54.473Z,99430.44
2023-06-11T01:09:52.140Z,99427.94
2023-06-11T01:10:50.747Z,99430.28
2023-06-11T01:11:50.393Z,99426.84
2023-06-11T01:12:47.425Z,99425.31
2023-06-11T01:13:44.564Z,99430.03
2023-06-11T01:14:41.480Z,99420.31
2023-06-11T01:15:38.419Z,99422.56
2023-06-11T01:16:46.411Z,99428.28
2023-06-11T01:17:56.250Z,99425.53
2023-06-11T01:19:05.028Z,99425.66
2023-06-11T01:20:38.882Z,99427.44
2023-06-11T01:21:46.523Z,99421.50
2023-06-11T01:22:55.836Z,99423.63
2023-06-11T01:23:57.458Z,99422.81
2023-06-11T01:25:31.820Z,99428.00
2023-06-11T01:27:19.136Z,99425.41
2023-06-11T01:28:21.111Z,99424.13
2023-06-11T01:29:21.783Z,99427.00
2023-06-11T01:30:18.673Z,99417.34
2023-06-11T01:31:16.996Z,99424.81
2023-06-11T01:32:16.004Z,99423.53
2023-06-11T01:33:15.272Z,99418.88
2023-06-11T01:34:14.662Z,99423.75
2023-06-11T01:35:11.847Z,99422.81
2023-06-11T01:36:09.239Z,99421.97
2023-06-11T01:37:06.655Z,99418.19
2023-06-11T01:38:03.801Z,99428.50
2023-06-11T01:39:02.854Z,99418.88
2023-06-11T01:40:00.507Z,99427.81
2023-06-11T01:41:00.246Z,99427.31
2023-06-11T01:41:57.722Z,99431.81
2023-06-11T01:42:56.133Z,99435.63
2023-06-11T01:43:53.045Z,99428.84
2023-06-11T01:44:49.975Z,99435.25
2023-06-11T01:45:46.896Z,99439.06
2023-06-11T01:46:43.902Z,99436.31
2023-06-11T01:47:41.847Z,99435.41
2023-06-11T01:48:38.835Z,99433.97
2023-06-11T01:49:35.922Z,99438.13
2023-06-11T01:50:34.038Z,99443.00
2023-06-11T01:51:30.974Z,99448.22
2023-06-11T01:52:27.921Z,99437.78
2023-06-11T01:53:24.982Z,99436.09
2023-06-11T01:54:21.885Z,99434.47
2023-06-11T01:55:18.840Z,99437.69
2023-06-11T01:56:15.748Z,99437.34
2023-06-11T01:57:13.368Z,99439.47
2023-06-11T01:58:10.430Z,99432.34
2023-06-11T01:59:07.885Z,99436.97
2023-06-11T02:00:09.346Z,99432.59
2023-06-11T02:01:06.324Z,99432.84
2023-06-11T02:02:03.392Z,99436.75
2023-06-11T02:03:03.359Z,99438.88
2023-06-11T02:04:00.688Z,99429.28
2023-06-11T02:04:57.745Z,99430.47
2023-06-11T02:05:54.764Z,99431.56
2023-06-11T02:06:51.957Z,99437.00
2023-06-11T02:07:48.881Z,99428.81
2023-06-11T02:08:45.824Z,99432.59
2023-06-11T02:09:42.840Z,99434.50
2023-06-11T02:10:39.763Z,99432.97
2023-06-11T02:11:36.671Z,99427.50
2023-06-11T02:12:33.638Z,99431.28
2023-06-11T02:13:32.081Z,99436.78
2023-06-11T02:14:29.071Z,99425.06
2023-06-11T02:15:27.042Z,99431.91
2023-06-11T02:16:23.987Z,99431.09
2023-06-11T02:17:21.357Z,99430.59
2023-06-11T02:18:18.282Z,99430.59
2023-06-11T02:19:15.192Z,99426.22
2023-06-11T02:20:13.400Z,99432.97
2023-06-11T02:21:10.366Z,99435.47
2023-06-11T02:22:07.328Z,99427.88
2023-06-11T02:23:05.123Z,99431.09
2023-06-11T02:24:02.165Z,99437.16
2023-06-11T02:24:59.041Z,99432.03
2023-06-11T02:25:55.993Z,99434.75
2023-06-11T02:26:53.026Z,99432.84
2023-06-11T02:27:53.005Z,99436.16
2023-06-11T02:28:49.956Z,99433.69
2023-06-11T02:29:46.849Z,99433.56
2023-06-11T02:30:43.758Z,99439.63
2023-06-11T02:31:40.883Z,99443.16
2023-06-11T02:32:37.918Z,99437.47
2023-06-11T02:33:34.948Z,99441.28
2023-06-11T02:34:31.936Z,99447.47
2023-06-11T02:35:28.855Z,99442.94
2023-06-11T02:36:25.808Z,99438.66
2023-06-11T02:37:22.734Z,99444.13
2023-06-11T02:38:19.643Z,99451.47
2023-06-11T02:39:16.693Z,99444.63
2023-06-11T02:40:13.809Z,99444.13
2023-06-11T02:41:10.833Z,99443.16
2023-06-11T02:42:07.953Z,99439.97
2023-06-11T02:43:04.893Z,99435.94
2023-06-11T02:44:01.890Z,99445.78
2023-06-11T02:44:58.904Z,99443.41
2023-06-11T02:45:55.886Z,99445.53
2023-06-11T02:46:52.974Z,99444.84
2023-06-11T02:47:49.960Z,99445.81
2023-06-11T02:48:46.955Z,99447.09
2023-06-11T02:49:43.856Z,99449.72
2023-06-11T02:50:40.923Z,99453.03
2023-06-11T02:51:37.944Z,99455.28
2023-06-11T02:52:34.959Z,99451.94
2023-06-11T02:53:31.887Z,99450.66
2023-06-11T02:54:28.856Z,99453.13
2023-06-11T02:55:26.744Z,99462.41
2023-06-11T02:56:23.755Z,99456.72
2023-06-11T02:57:20.689Z,99460.03
2023-06-11T02:58:17.653Z,99460.72
2023-06-11T02:59:14.678Z,99456.22
2023-06-11T03:00:12.365Z,99456.81
2023-06-11T03:01:09.368Z,99459.44
2023-06-11T03:02:06.481Z,99455.16
2023-06-11T03:03:03.537Z,99457.03
2023-06-11T03:04:00.746Z,99465.59
2023-06-11T03:04:57.709Z,99460.84
2023-06-11T03:05:54.647Z,99460.72
2023-06-11T03:06:51.585Z,99460.84
2023-06-11T03:07:48.517Z,99457.63
2023-06-11T03:08:45.489Z,99461.31
2023-06-11T03:09:42.454Z,99464.41
2023-06-11T03:10:39.432Z,99462.03
2023-06-11T03:11:36.898Z,99456.09
2023-06-11T03:12:33.962Z,99457.50
2023-06-11T03:13:30.987Z,99457.50
2023-06-11T03:14:27.966Z,99460.81
2023-06-11T03:15:24.872Z,99456.69
2023-06-11T03:16:21.848Z,99463.81
2023-06-11T03:17:18.927Z,99459.53
2023-06-11T03:18:16.491Z,99455.13
2023-06-11T03:19:13.441Z,99461.41
2023-06-11T03:20:10.907Z,99459.19
2023-06-11T03:21:07.855Z,99462.13
2023-06-11T03:22:05.030Z,99463.56
2023-06-11T03:23:03.483Z,99464.62
2023-06-11T03:24:00.535Z,99464.50
2023-06-11T03:24:57.469Z,99462.13
2023-06-11T03:25:54.416Z,99471.97
2023-06-11T03:26:51.340Z,99468.06
2023-06-11T03:27:48.395Z,99466.16
2023-06-11T03:28:45.409Z,99472.19
2023-06-11T03:29:42.338Z,99469.00
2023-06-11T03:30:39.264Z,99477.78
2023-06-11T03:31:36.836Z,99468.28
2023-06-11T03:32:33.876Z,99470.31
2023-06-11T03:33:30.746Z,99478.03
2023-06-11T03:34:27.664Z,99476.13
2023-06-11T03:35:24.586Z,99478.84
2023-06-11T03:36:21.560Z,99475.87
2023-06-11T03:37:19.264Z,99482.41
2023-06-11T03:38:16.216Z,99485.53
2023-06-11T03:39:13.185Z,99474.72
2023-06-11T03:40:10.435Z,99483.84
2023-06-11T03:41:08.610Z,99485.16
2023-06-11T03:42:05.824Z,99477.91
2023-06-11T03:43:02.756Z,99481.81
2023-06-11T03:43:59.863Z,99490.13
2023-06-11T03:44:57.134Z,99484.75
2023-06-11T03:45:54.099Z,99489.16
2023-06-11T03:46:51.293Z,99482.03
2023-06-11T03:47:53.432Z,99487.84
2023-06-11T03:48:50.602Z,99492.59
2023-06-11T03:49:47.574Z,99485.81
2023-06-11T03:50:44.534Z,99487.72
2023-06-11T03:51:41.546Z,99488.03
2023-06-11T03:52:38.590Z,99495.53
2023-06-11T03:53:35.761Z,99487.06
2023-06-11T03:54:32.635Z,99488.75
2023-06-11T03:55:31.096Z,99491.25
2023-06-11T03:56:28.153Z,99484.19
2023-06-11T03:57:25.126Z,99485.63
2023-06-11T03:58:22.063Z,99485.94
2023-06-11T03:59:18.974Z,99482.97
2023-06-11T04:00:16.560Z,99492.59
2023-06-11T04:01:13.676Z,99493.09
2023-06-11T04:02:10.662Z,99491.53
2023-06-11T04:03:07.685Z,99488.88
2023-06-11T04:04:04.874Z,99485.91
2023-06-11T04:05:02.513Z,99490.87
2023-06-11T04:05:59.524Z,99492.44
2023-06-11T04:06:56.506Z,99488.13
2023-06-11T04:07:53.453Z,99491.72
2023-06-11T04:08:50.366Z,99492.38
2023-06-11T04:09:47.292Z,99489.66
2023-06-11T04:10:44.730Z,99489.16
2023-06-11T04:11:41.705Z,99493.31
2023-06-11T04:12:38.615Z,99486.75
2023-06-11T04:13:35.712Z,99488.66
2023-06-11T04:14:32.723Z,99491.50
2023-06-11T04:15:29.891Z,99493.75
2023-06-11T04:16:26.836Z,99487.78
2023-06-11T04:17:23.903Z,99486.78
2023-06-11T04:18:20.957Z,99489.28
2023-06-11T04:19:19.513Z,99483.44
2023-06-11T04:20:16.639Z,99485.41
2023-06-11T04:21:13.545Z,99478.62
2023-06-11T04:22:10.549Z,99483.28
2023-06-11T04:23:07.957Z,99488.22
2023-06-11T04:24:08.344Z,99481.94
2023-06-11T04:25:08.358Z,99487.25
2023-06-11T04:26:05.467Z,99483.75
2023-06-11T04:27:02.413Z,99483.50
2023-06-11T04:27:59.532Z,99480.00
2023-06-11T04:28:57.795Z,99485.50
2023-06-11T04:29:57.553Z,99484.72
2023-06-11T04:30:58.827Z,99485.84
2023-06-11T04:31:56.354Z,99483.91
2023-06-11T04:32:56.555Z,99485.66
2023-06-11T04:33:57.284Z,99488.22
2023-06-11T04:34:58.296Z,99497.00
2023-06-11T04:35:57.417Z,99494.09
2023-06-11T04:36:54.633Z,99495.50
2023-06-11T04:37:51.694Z,99494.09
2023-06-11T04:38:50.018Z,99499.06
2023-06-11T04:39:47.225Z,99492.84
2023-06-11T04:40:44.175Z,99501.31
2023-06-11T04:41:41.165Z,99496.59
2023-06-11T04:42:41.792Z,99503.28
2023-06-11T04:43:38.718Z,99500.31
2023-06-11T04:44:37.781Z,99497.87
2023-06-11T04:45:35.355Z,99499.03
2023-06-11T04:46:35.958Z,99498.44
2023-06-11T04:47:34.806Z,99498.63
2023-06-11T04:48:36.116Z,99502.28
2023-06-11T04:49:33.863Z,99505.00
2023-06-11T04:50:32.992Z,99503.69
2023-06-11T04:51:34.318Z,99506.22
2023-06-11T04:52:44.190Z,99501.59
2023-06-11T04:53:41.174Z,99499.59
2023-06-11T04:54:38.413Z,99506.03
2023-06-11T04:55:39.939Z,99500.06
2023-06-11T04:56:37.159Z,99506.63
2023-06-11T04:57:34.090Z,99506.31
2023-06-11T04:58:31.828Z,99508.03
2023-06-11T04:59:28.794Z,99510.50
2023-06-11T05:00:25.766Z,99508.03
2023-06-11T05:01:22.761Z,99508.03
2023-06-11T05:02:19.773Z,99505.72
2023-06-11T05:03:18.244Z,99507.63
2023-06-11T05:04:15.905Z,99504.38
2023-06-11T05:05:14.486Z,99507.13
2023-06-11T05:06:14.855Z,99507.03
2023-06-11T05:07:12.138Z,99500.31
2023-06-11T05:08:09.051Z,99503.28
2023-06-11T05:09:05.978Z,99498.19
2023-06-11T05:10:02.966Z,99498.56
2023-06-11T05:10:59.916Z,99504.63
2023-06-11T05:11:56.820Z,99505.28
2023-06-11T05:12:53.768Z,99506.28
2023-06-11T05:13:50.690Z,99507.19
2023-06-11T05:14:47.621Z,99506.66
2023-06-11T05:15:44.576Z,99514.66
2023-06-11T05:16:42.274Z,99517.38
2023-06-11T05:17:39.569Z,99515.59
2023-06-11T05:18:37.061Z,99513.28
2023-06-11T05:19:34.100Z,99514.06
2023-06-11T05:20:31.346Z,99519.75
2023-06-11T05:21:28.368Z,99522.78
2023-06-11T05:22:25.356Z,99516.00
2023-06-11T05:23:30.273Z,99515.34
2023-06-11T05:24:30.499Z,99515.94
2023-06-11T05:25:30.627Z,99516.97
2023-06-11T05:26:32.998Z,99523.09
2023-06-11T05:27:30.857Z,99523.16
2023-06-11T05:28:28.029Z,99518.75
2023-06-11T05:29:25.641Z,99524.34
2023-06-11T05:30:26.924Z,99522.53
2023-06-11T05:31:25.306Z,99521.28
2023-06-11T05:32:23.104Z,99522.97
2023-06-11T05:33:20.162Z,99530.16
2023-06-11T05:34:17.101Z,99525.19
2023-06-11T05:35:14.414Z,99522.31
2023-06-11T05:36:11.947Z,99523.94
2023-06-11T05:37:08.896Z,99519.81
2023-06-11T05:38:07.593Z,99530.94
2023-06-11T05:39:04.787Z,99527.38
2023-06-11T05:40:01.663Z,99528.06
2023-06-11T05:40:58.673Z,99531.69
2023-06-11T05:41:55.721Z,99536.69
2023-06-11T05:42:52.708Z,99527.66
2023-06-11T05:43:49.716Z,99533.44
2023-06-11T05:44:46.645Z,99533.72
2023-06-11T05:45:50.678Z,99529.91
2023-06-11T05:46:47.743Z,99543.75
2023-06-11T05:47:44.926Z,99537.38
2023-06-11T05:48:42.474Z,99538.50
2023-06-11T05:49:39.507Z,99543.87
2023-06-11T05:50:36.598Z,99537.06
2023-06-11T05:51:33.962Z,99539.38
2023-06-11T05:52:31.395Z,99542.81
2023-06-11T05:53:28.348Z,99548.09
2023-06-11T05:54:25.276Z,99535.25
2023-06-11T05:55:22.455Z,99537.13
2023-06-11T05:56:19.378Z,99544.28
2023-06-11T05:57:20.534Z,99548.38
2023-06-11T05:58:17.432Z,99547.56
2023-06-11T05:59:14.478Z,99541.81
2023-06-11T06:00:13.908Z,99547.03
2023-06-11T06:01:13.620Z,99536.59
2023-06-11T06:02:10.671Z,99537.44
2023-06-11T06:03:08.132Z,99542.94
2023-06-11T06:04:05.657Z,99546.06
2023-06-11T06:05:02.840Z,99541.31
2023-06-11T06:06:01.091Z,99540.50
2023-06-11T06:06:58.053Z,99548.19
2023-06-11T06:07:55.022Z,99538.94
2023-06-11T06:08:52.036Z,99537.28
2023-06-11T06:09:48.946Z,99539.50
2023-06-11T06:10:45.892Z,99546.09
2023-06-11T06:11:42.922Z,99545.56
2023-06-11T06:12:39.834Z,99542.31
2023-06-11T06:13:36.725Z,99541.75
2023-06-11T06:14:33.894Z,99548.06
2023-06-11T06:15:30.933Z,99538.97
2023-06-11T06:16:29.056Z,99542.53
2023-06-11T06:17:26.260Z,99535.97
2023-06-11T06:18:24.159Z,99542.03
2023-06-11T06:19:21.564Z,99539.81
2023-06-11T06:20:18.508Z,99545.06
2023-06-11T06:21:15.600Z,99549.50
2023-06-11T06:22:12.649Z,99539.00
2023-06-11T06:23:10.708Z,99542.06
2023-06-11T06:24:07.938Z,99543.72
2023-06-11T06:25:05.364Z,99543.44
2023-06-11T06:26:05.264Z,99552.25
2023-06-11T06:27:02.197Z,99554.19
2023-06-11T06:27:59.155Z,99548.09
2023-06-11T06:28:56.636Z,99552.22
2023-06-11T06:29:53.787Z,99551.97
2023-06-11T06:30:51.404Z,99554.97
2023-06-11T06:31:48.339Z,99551.97
2023-06-11T06:32:45.428Z,99555.78
2023-06-11T06:33:42.498Z,99561.56
2023-06-11T06:34:39.460Z,99558.84
2023-06-11T06:35:36.650Z,99562.16
2023-06-11T06:36:33.817Z,99564.38
2023-06-11T06:37:31.202Z,99564.38
2023-06-11T06:38:28.286Z,99561.88
2023-06-11T06:39:25.404Z,99564.13
2023-06-11T06:40:22.510Z,99559.69
2023-06-11T06:41:19.781Z,99559.13
2023-06-11T06:42:16.723Z,99566.03
2023-06-11T06:43:13.649Z,99555.81
2023-06-11T06:44:10.665Z,99561.84
2023-06-11T06:45:08.386Z,99566.56
2023-06-11T06:46:05.551Z,99562.69
2023-06-11T06:47:02.635Z,99567.66
2023-06-11T06:47:59.616Z,99559.69
2023-06-11T06:48:56.811Z,99560.50
2023-06-11T06:49:53.846Z,99563.81
2023-06-11T06:50:50.794Z,99558.81
2023-06-11T06:51:47.920Z,99564.03
2023-06-11T06:52:44.976Z,99561.25
2023-06-11T06:53:42.034Z,99564.31
2023-06-11T06:54:39.876Z,99570.91
2023-06-11T06:55:36.809Z,99567.59
2023-06-11T06:56:33.741Z,99571.69
2023-06-11T06:57:31.762Z,99566.50
2023-06-11T06:58:30.295Z,99569.25
2023-06-11T06:59:27.264Z,99579.75
2023-06-11T07:00:24.334Z,99567.66
2023-06-11T07:01:21.435Z,99570.97
2023-06-11T07:02:18.838Z,99570.44
2023-06-11T07:03:16.352Z,99570.72
2023-06-11T07:04:13.700Z,99580.59
2023-06-11T07:05:11.556Z,99570.69
2023-06-11T07:06:09.695Z,99583.63
2023-06-11T07:07:06.911Z,99576.47
2023-06-11T07:08:03.919Z,99577.03
2023-06-11T07:09:00.886Z,99567.94
2023-06-11T07:09:57.805Z,99572.88
2023-06-11T07:10:56.649Z,99573.44
2023-06-11T07:11:54.373Z,99580.63
2023-06-11T07:12:51.399Z,99585.28
2023-06-11T07:13:48.313Z,99579.22
2023-06-11T07:14:45.221Z,99586.97
2023-06-11T07:15:42.224Z,99581.69
2023-06-11T07:16:39.688Z,99581.97
2023-06-11T07:17:36.685Z,99583.63
2023-06-11T07:18:34.251Z,99579.50
2023-06-11T07:19:31.249Z,99577.00
2023-06-11T07:20:28.343Z,99582.50
2023-06-11T07:21:25.758Z,99585.50
2023-06-11T07:22:22.809Z,99582.16
2023-06-11T07:23:22.556Z,99581.19
2023-06-11T07:24:19.875Z,99580.34
2023-06-11T07:25:16.923Z,99581.00
2023-06-11T07:26:15.402Z,99582.06
2023-06-11T07:27:12.791Z,99585.91
2023-06-11T07:28:09.771Z,99587.06
2023-06-11T07:29:08.622Z,99586.56
2023-06-11T07:30:08.347Z,99583.53
2023-06-11T07:31:05.506Z,99583.00
2023-06-11T07:32:02.522Z,99589.63
2023-06-11T07:33:00.294Z,99583.28
2023-06-11T07:33:57.321Z,99587.66
2023-06-11T07:34:54.258Z,99576.84
2023-06-11T07:35:51.215Z,99587.59
2023-06-11T07:36:48.168Z,99580.13
2023-06-11T07:37:46.780Z,99584.28
2023-06-11T07:38:46.970Z,99590.34
2023-06-11T07:39:44.617Z,99586.78
2023-06-11T07:40:41.739Z,99589.87
2023-06-11T07:41:38.774Z,99591.50
2023-06-11T07:42:35.839Z,99588.78
2023-06-11T07:43:32.858Z,99587.94
2023-06-11T07:44:29.868Z,99581.00
2023-06-11T07:45:26.806Z,99587.88
2023-06-11T07:46:23.723Z,99588.44
2023-06-11T07:47:21.053Z,99583.97
2023-06-11T07:48:18.049Z,99589.66
2023-06-11T07:49:15.066Z,99587.19
2023-06-11T07:50:12.771Z,99583.81
2023-06-11T07:51:09.950Z,99580.66
2023-06-11T07:52:07.971Z,99582.66
2023-06-11T07:53:05.356Z,99588.41
2023-06-11T07:54:02.350Z,99582.06
2023-06-11T07:54:59.433Z,99582.22
2023-06-11T07:55:58.589Z,99585.44
2023-06-11T07:56:57.162Z,99579.72
2023-06-11T07:57:54.154Z,99589.16
2023-06-11T07:58:52.070Z,99582.19
2023-06-11T07:59:49.418Z,99587.09
2023-06-11T08:00:46.377Z,99584.78
2023-06-11T08:01:43.429Z,99578.34
2023-06-11T08:02:43.679Z,99585.56
2023-06-11T08:03:41.420Z,99588.78
2023-06-11T08:04:39.169Z,99582.72
2023-06-11T08:05:36.259Z,99592.34
2023-06-11T08:06:34.599Z,99590.56
2023-06-11T08:07:31.926Z,99601.59
2023-06-11T08:08:28.810Z,99593.88
2023-06-11T08:09:28.375Z,99597.25
2023-06-11T08:10:27.255Z,99598.69
2023-06-11T08:11:24.496Z,99599.22
2023-06-11T08:12:21.647Z,99600.75
2023-06-11T08:13:19.686Z,99602.69
2023-06-11T08:14:20.232Z,99605.00
2023-06-11T08:15:17.216Z,99600.00
2023-06-11T08:16:14.561Z,99598.03
2023-06-11T08:17:11.830Z,99597.06
2023-06-11T08:18:09.356Z,99605.81
2023-06-11T08:19:06.328Z,99595.88
2023-06-11T08:20:07.434Z,99596.63
2023-06-11T08:21:06.771Z,99596.19
2023-06-11T08:22:03.849Z,99594.59
2023-06-11T08:23:01.141Z,99593.31
2023-06-11T08:23:58.915Z,99594.59
2023-06-11T08:24:56.260Z,99592.62
2023-06-11T08:25:53.190Z,99597.34
2023-06-11T08:26:50.526Z,99599.56
2023-06-11T08:27:47.962Z,99592.97
2023-06-11T08:28:45.409Z,99590.91
2023-06-11T08:29:43.217Z,99599.28
2023-06-11T08:30:40.181Z,99601.44
2023-06-11T08:31:37.147Z,99604.34
2023-06-11T08:32:34.221Z,99594.03
2023-06-11T08:33:31.553Z,99586.50
2023-06-11T08:34:28.760Z,99590.53
2023-06-11T08:35:27.514Z,99592.69
2023-06-11T08:36:24.480Z,99591.53
2023-06-11T08:37:21.473Z,99593.69
2023-06-11T08:38:18.466Z,99593.47
2023-06-11T08:39:15.475Z,99588.97
2023-06-11T08:40:13.835Z,99593.34
2023-06-11T08:41:11.248Z,99590.94
2023-06-11T08:42:09.165Z,99592.38
2023-06-11T08:43:06.138Z,99579.88
2023-06-11T08:44:03.507Z,99589.75
2023-06-11T08:45:00.421Z,99584.56
2023-06-11T08:45:57.478Z,99589.03
2023-06-11T08:46:56.452Z,99586.88
2023-06-11T08:47:56.339Z,99591.19
2023-06-11T08:49:02.319Z,99588.69
2023-06-11T08:50:00.850Z,99599.81
2023-06-11T08:51:03.428Z,99590.97
2023-06-11T08:52:03.995Z,99598.44
2023-06-11T08:53:03.288Z,99596.91
2023-06-11T08:54:00.285Z,99596.75
2023-06-11T08:54:57.345Z,99595.44
2023-06-11T08:55:54.524Z,99591.44
2023-06-11T08:56:51.584Z,99593.50
2023-06-11T08:57:50.793Z,99595.25
2023-06-11T08:58:48.825Z,99593.75
2023-06-11T08:59:45.905Z,99594.28
2023-06-11T09:00:44.118Z,99590.25
2023-06-11T09:01:42.187Z,99586.62
2023-06-11T09:02:39.727Z,99599.66
2023-06-11T09:03:37.209Z,99586.47
2023-06-11T09:04:34.562Z,99588.31
2023-06-11T09:05:34.431Z,99587.06
2023-06-11T09:06:31.399Z,99586.94
2023-06-11T09:07:28.322Z,99584.91
2023-06-11T09:08:25.370Z,99587.31
2023-06-11T09:09:22.376Z,99584.53
2023-06-11T09:10:20.136Z,99588.91
2023-06-11T09:11:17.322Z,99590.09
2023-06-11T09:12:14.989Z,99594.69
2023-06-11T09:13:11.882Z,99588.87
2023-06-11T09:14:08.871Z,99588.41
2023-06-11T09:15:06.991Z,99588.75
2023-06-11T09:16:04.220Z,99586.91
2023-06-11T09:17:01.275Z,99588.91
2023-06-11T09:17:58.387Z,99579.72
2023-06-11T09:18:57.195Z,99569.53
2023-06-11T09:19:55.161Z,99576.34
2023-06-11T09:21:01.399Z,99584.81
2023-06-11T09:21:58.427Z,99584.75
2023-06-11T09:22:56.254Z,99580.94
2023-06-11T09:23:53.517Z,99573.84
2023-06-11T09:24:52.102Z,99578.34
2023-06-11T09:25:49.125Z,99581.09
2023-06-11T09:26:59.968Z,99580.53
2023-06-11T09:27:56.925Z,99583.69
2023-06-11T09:29:00.855Z,99584.97
2023-06-11T09:29:58.124Z,99582.63
2023-06-11T09:30:57.010Z,99578.88
2023-06-11T09:32:09.957Z,99580.53
2023-06-11T09:33:19.066Z,99578.50
2023-06-11T09:34:23.582Z,99579.19
2023-06-11T09:35:24.829Z,99579.59
2023-06-11T09:36:23.680Z,99581.31
2023-06-11T09:37:21.368Z,99575.78
2023-06-11T09:38:20.570Z,99575.75
2023-06-11T09:39:17.986Z,99578.47
2023-06-11T09:40:19.666Z,99579.31
2023-06-11T09:41:19.515Z,99577.62
2023-06-11T09:42:25.628Z,99573.31
2023-06-11T09:43:24.900Z,99567.63
2023-06-11T09:44:22.892Z,99565.87
2023-06-11T09:45:22.668Z,99576.63
2023-06-11T09:46:20.827Z,99571.22
2023-06-11T09:47:18.164Z,99576.34
2023-06-11T09:48:15.227Z,99582.44
2023-06-11T09:49:13.833Z,99577.78
2023-06-11T09:50:13.225Z,99576.91
2023-06-11T09:51:10.782Z,99574.31
2023-06-11T09:52:08.266Z,99574.47
2023-06-11T09:53:07.180Z,99582.69
2023-06-11T09:54:05.048Z,99585.31
2023-06-11T09:55:02.666Z,99579.91
2023-06-11T09:56:10.249Z,99577.25
2023-06-11T09:57:09.126Z,99588.59
2023-06-11T09:58:07.635Z,99582.69
2023-06-11T09:59:05.408Z,99581.09
2023-06-11T10:00:02.903Z,99574.25
2023-06-11T10:01:04.286Z,99573.47
2023-06-11T10:02:04.025Z,99589.44
2023-06-11T10:03:01.348Z,99581.19
2023-06-11T10:03:59.810Z,99581.13
2023-06-11T10:04:56.943Z,99583.78
2023-06-11T10:05:54.477Z,99577.16
2023-06-11T10:06:52.333Z,99582.28
2023-06-11T10:08:17.518Z,99582.41
2023-06-11T10:09:16.732Z,99581.63
2023-06-11T10:10:17.340Z,99579.19
2023-06-11T10:11:14.679Z,99585.19
2023-06-11T10:12:14.043Z,99582.25
2023-06-11T10:13:12.729Z,99578.50
2023-06-11T10:14:14.031Z,99580.28
2023-06-11T10:15:11.926Z,99585.16
2023-06-11T10:16:10.023Z,99587.97
2023-06-11T10:17:10.100Z,99585.59
2023-06-11T10:18:14.372Z,99585.28
2023-06-11T10:19:12.016Z,99590.28
2023-06-11T10:20:26.280Z,99583.66
2023-06-11T10:21:41.363Z,99592.09
2023-06-11T10:22:38.365Z,99584.06
2023-06-11T10:23:43.233Z,99580.78
2023-06-11T10:24:40.273Z,99584.69
2023-06-11T10:25:39.673Z,99587.59
2023-06-11T10:26:37.321Z,99590.91
2023-06-11T10:27:40.061Z,99590.50
2023-06-11T10:28:38.061Z,99582.06
2023-06-11T10:29:39.847Z,99576.88
2023-06-11T10:30:36.849Z,99587.53
2023-06-11T10:31:41.219Z,99577.38
2023-06-11T10:32:50.194Z,99586.19
2023-06-11T10:33:47.479Z,99581.53
2023-06-11T10:34:46.036Z,99573.47
2023-06-11T10:35:47.680Z,99583.34
2023-06-11T10:36:44.768Z,99575.44
2023-06-11T10:37:43.451Z,99577.25
2023-06-11T10:38:40.479Z,99566.28
2023-06-11T10:39:37.513Z,99574.50
2023-06-11T10:40:36.717Z,99576.03
2023-06-11T10:41:38.588Z,99575.53
2023-06-11T10:42:40.355Z,99575.69
2023-06-11T10:43:37.628Z,99575.06
2023-06-11T10:44:42.356Z,99574.97
2023-06-11T10:45:39.916Z,99578.31
2023-06-11T10:46:55.576Z,99576.47
2023-06-11T10:47:52.663Z,99573.84
2023-06-11T10:48:54.283Z,99571.31
2023-06-11T10:49:51.321Z,99578.66
2023-06-11T10:50:48.303Z,99580.31
2023-06-11T10:51:47.750Z,99569.31
2023-06-11T10:53:13.373Z,99568.91
2023-06-11T10:54:10.344Z,99577.22
2023-06-11T10:55:10.846Z,99579.06
2023-06-11T10:56:09.631Z,99573.13
2023-06-11T10:57:07.441Z,99570.69
2023-06-11T10:58:04.495Z,99570.81
2023-06-11T10:59:01.511Z,99570.62
2023-06-11T10:59:59.311Z,99573.50
2023-06-11T11:00:56.672Z,99559.03
2023-06-11T11:01:57.662Z,99562.38
2023-06-11T11:02:56.303Z,99566.34
2023-06-11T11:03:54.920Z,99554.22
2023-06-11T11:04:53.256Z,99560.38
2023-06-11T11:05:54.814Z,99562.72
2023-06-11T11:06:56.715Z,99565.66
2023-06-11T11:07:55.086Z,99570.69
2023-06-11T11:08:53.368Z,99561.53
2023-06-11T11:09:51.469Z,99561.53
2023-06-11T11:11:02.630Z,99567.34
2023-06-11T11:12:00.244Z,99568.63
2023-06-11T11:12:57.400Z,99559.19
2023-06-11T11:13:54.913Z,99570.91
2023-06-11T11:14:52.194Z,99561.16
2023-06-11T11:15:49.206Z,99554.22
2023-06-11T11:16:49.571Z,99556.91
2023-06-11T11:17:47.007Z,99559.84
2023-06-11T11:18:44.131Z,99560.28
2023-06-11T11:19:42.301Z,99561.16
2023-06-11T11:20:39.302Z,99562.50
2023-06-11T11:21:37.700Z,99554.50
2023-06-11T11:22:35.109Z,99563.78
2023-06-11T11:23:35.147Z,99561.53
2023-06-11T11:24:38.978Z,99555.41
2023-06-11T11:25:38.144Z,99547.66
2023-06-11T11:26:45.569Z,99548.84